sensor_id;sensor_type;location;lat;lon;timestamp;temperature;humidity
40932;DHT22;36257;46.052;12.540;2023-04-25T00:00:46;10.30;99.90
40932;DHT22;36257;46.052;12.540;2023-04-25T00:03:11;10.30;99.90
40932;DHT22;36257;46.052;12.540;2023-04-25T00:05:37;10.20;99.90
40932;DHT22;36257;46.052;12.540;2023-04-25T00:08:03;10.20;99.90
40932;DHT22;36257;46.052;12.540;2023-04-25T00:10:29;10.10;99.90
40932;DHT22;36257;46.052;12.540;2023-04-25T00:12:55;10.20;99.90
40932;DHT22;36257;46.052;12.540;2023-04-25T00:15:20;10.10;99.90
40932;DHT22;36257;46.052;12.540;2023-04-25T00:17:47;10.10;99.90
40932;DHT22;36257;46.052;12.540;2023-04-25T00:20:12;10.10;99.90
40932;DHT22;36257;46.052;12.540;2023-04-25T00:22:38;10.10;99.90
40932;DHT22;36257;46.052;12.540;2023-04-25T00:25:05;10.10;99.90
40932;DHT22;36257;46.052;12.540;2023-04-25T00:27:31;10.10;99.90
40932;DHT22;36257;46.052;12.540;2023-04-25T00:29:57;10.00;99.90
40932;DHT22;36257;46.052;12.540;2023-04-25T00:32:23;10.00;99.90
40932;DHT22;36257;46.052;12.540;2023-04-25T00:34:48;10.00;99.90
40932;DHT22;36257;46.052;12.540;2023-04-25T00:37:14;9.90;99.90
40932;DHT22;36257;46.052;12.540;2023-04-25T00:39:40;9.90;99.90
40932;DHT22;36257;46.052;12.540;2023-04-25T00:42:05;9.80;99.90
40932;DHT22;36257;46.052;12.540;2023-04-25T00:44:31;9.80;99.90
40932;DHT22;36257;46.052;12.540;2023-04-25T00:46:58;9.80;99.90
40932;DHT22;36257;46.052;12.540;2023-04-25T00:49:23;9.80;99.90
40932;DHT22;36257;46.052;12.540;2023-04-25T00:51:49;9.80;99.90
40932;DHT22;36257;46.052;12.540;2023-04-25T00:54:15;9.80;99.90
40932;DHT22;36257;46.052;12.540;2023-04-25T00:56:41;9.80;99.90
40932;DHT22;36257;46.052;12.540;2023-04-25T00:59:09;9.80;99.90
40932;DHT22;36257;46.052;12.540;2023-04-25T01:01:35;9.80;99.90
40932;DHT22;36257;46.052;12.540;2023-04-25T01:04:01;9.70;99.90
40932;DHT22;36257;46.052;12.540;2023-04-25T01:06:27;9.70;99.90
40932;DHT22;36257;46.052;12.540;2023-04-25T01:08:53;9.70;99.90
40932;DHT22;36257;46.052;12.540;2023-04-25T01:11:19;9.60;99.90
40932;DHT22;36257;46.052;12.540;2023-04-25T01:13:45;9.60;99.90
40932;DHT22;36257;46.052;12.540;2023-04-25T01:16:11;9.60;99.90
40932;DHT22;36257;46.052;12.540;2023-04-25T01:18:39;9.60;99.90
40932;DHT22;36257;46.052;12.540;2023-04-25T01:21:12;9.60;99.90
40932;DHT22;36257;46.052;12.540;2023-04-25T01:23:40;9.50;99.90
40932;DHT22;36257;46.052;12.540;2023-04-25T01:26:06;9.50;99.90
40932;DHT22;36257;46.052;12.540;2023-04-25T01:28:34;9.50;99.90
40932;DHT22;36257;46.052;12.540;2023-04-25T01:31:00;9.40;99.90
40932;DHT22;36257;46.052;12.540;2023-04-25T01:33:26;9.40;99.90
40932;DHT22;36257;46.052;12.540;2023-04-25T01:35:52;9.50;99.90
40932;DHT22;36257;46.052;12.540;2023-04-25T01:38:17;9.50;99.90
40932;DHT22;36257;46.052;12.540;2023-04-25T01:40:45;9.50;99.90
40932;DHT22;36257;46.052;12.540;2023-04-25T01:43:11;9.50;99.90
40932;DHT22;36257;46.052;12.540;2023-04-25T01:45:38;9.50;99.90
40932;DHT22;36257;46.052;12.540;2023-04-25T01:48:08;9.50;99.90
40932;DHT22;36257;46.052;12.540;2023-04-25T01:50:34;9.40;99.90
40932;DHT22;36257;46.052;12.540;2023-04-25T01:53:00;9.40;99.90
40932;DHT22;36257;46.052;12.540;2023-04-25T01:55:27;9.40;99.90
40932;DHT22;36257;46.052;12.540;2023-04-25T01:57:53;9.40;99.90
40932;DHT22;36257;46.052;12.540;2023-04-25T02:00:19;9.30;99.90
40932;DHT22;36257;46.052;12.540;2023-04-25T02:02:46;9.30;99.90
40932;DHT22;36257;46.052;12.540;2023-04-25T02:05:11;9.30;99.90
40932;DHT22;36257;46.052;12.540;2023-04-25T02:07:37;9.40;99.90
40932;DHT22;36257;46.052;12.540;2023-04-25T02:10:03;9.40;99.90
40932;DHT22;36257;46.052;12.540;2023-04-25T02:12:31;9.40;99.90
40932;DHT22;36257;46.052;12.540;2023-04-25T02:14:57;9.40;99.90
40932;DHT22;36257;46.052;12.540;2023-04-25T02:17:23;9.40;99.90
40932;DHT22;36257;46.052;12.540;2023-04-25T02:19:48;9.30;99.90
40932;DHT22;36257;46.052;12.540;2023-04-25T02:22:14;9.30;99.90
40932;DHT22;36257;46.052;12.540;2023-04-25T02:24:40;9.30;99.90
40932;DHT22;36257;46.052;12.540;2023-04-25T02:27:05;9.30;99.90
40932;DHT22;36257;46.052;12.540;2023-04-25T02:29:31;9.50;99.90
40932;DHT22;36257;46.052;12.540;2023-04-25T02:31:57;9.60;99.90
40932;DHT22;36257;46.052;12.540;2023-04-25T02:34:23;9.70;99.90
40932;DHT22;36257;46.052;12.540;2023-04-25T02:36:49;9.60;99.90
40932;DHT22;36257;46.052;12.540;2023-04-25T02:39:17;9.60;99.90
40932;DHT22;36257;46.052;12.540;2023-04-25T02:41:43;9.50;99.90
40932;DHT22;36257;46.052;12.540;2023-04-25T02:44:09;9.30;99.90
40932;DHT22;36257;46.052;12.540;2023-04-25T02:46:34;9.30;99.90
40932;DHT22;36257;46.052;12.540;2023-04-25T02:49:00;9.20;99.90
40932;DHT22;36257;46.052;12.540;2023-04-25T02:51:25;9.20;99.90
40932;DHT22;36257;46.052;12.540;2023-04-25T02:53:51;9.20;99.90
40932;DHT22;36257;46.052;12.540;2023-04-25T02:56:17;9.20;99.90
40932;DHT22;36257;46.052;12.540;2023-04-25T02:58:42;9.20;99.90
40932;DHT22;36257;46.052;12.540;2023-04-25T03:01:08;9.10;99.90
40932;DHT22;36257;46.052;12.540;2023-04-25T03:03:34;9.10;99.90
40932;DHT22;36257;46.052;12.540;2023-04-25T03:06:00;9.10;99.90
40932;DHT22;36257;46.052;12.540;2023-04-25T03:08:25;9.00;99.90
40932;DHT22;36257;46.052;12.540;2023-04-25T03:10:54;9.00;99.90
40932;DHT22;36257;46.052;12.540;2023-04-25T03:13:21;9.10;99.90
40932;DHT22;36257;46.052;12.540;2023-04-25T03:15:46;9.10;99.90
40932;DHT22;36257;46.052;12.540;2023-04-25T03:18:12;9.00;99.90
40932;DHT22;36257;46.052;12.540;2023-04-25T03:20:37;8.90;99.90
40932;DHT22;36257;46.052;12.540;2023-04-25T03:23:04;8.80;99.90
40932;DHT22;36257;46.052;12.540;2023-04-25T03:25:30;8.70;99.90
40932;DHT22;36257;46.052;12.540;2023-04-25T03:27:56;8.70;99.90
40932;DHT22;36257;46.052;12.540;2023-04-25T03:30:22;8.60;99.90
40932;DHT22;36257;46.052;12.540;2023-04-25T03:32:47;8.70;99.90
40932;DHT22;36257;46.052;12.540;2023-04-25T03:35:13;8.70;99.90
40932;DHT22;36257;46.052;12.540;2023-04-25T03:37:39;8.60;99.90
40932;DHT22;36257;46.052;12.540;2023-04-25T03:40:06;8.70;99.90
40932;DHT22;36257;46.052;12.540;2023-04-25T03:42:32;8.70;99.90
40932;DHT22;36257;46.052;12.540;2023-04-25T03:44:57;8.70;99.90
40932;DHT22;36257;46.052;12.540;2023-04-25T03:47:23;8.70;99.90
40932;DHT22;36257;46.052;12.540;2023-04-25T03:49:49;8.60;99.90
40932;DHT22;36257;46.052;12.540;2023-04-25T03:52:17;8.60;99.90
40932;DHT22;36257;46.052;12.540;2023-04-25T03:54:42;8.60;99.90
40932;DHT22;36257;46.052;12.540;2023-04-25T03:57:08;8.60;99.90
40932;DHT22;36257;46.052;12.540;2023-04-25T03:59:34;8.70;99.90
40932;DHT22;36257;46.052;12.540;2023-04-25T04:01:59;8.60;99.90
40932;DHT22;36257;46.052;12.540;2023-04-25T04:04:25;8.70;99.90
40932;DHT22;36257;46.052;12.540;2023-04-25T04:06:50;8.60;99.90
40932;DHT22;36257;46.052;12.540;2023-04-25T04:09:18;8.50;99.90
40932;DHT22;36257;46.052;12.540;2023-04-25T04:11:44;8.50;99.90
40932;DHT22;36257;46.052;12.540;2023-04-25T04:14:10;8.40;99.90
40932;DHT22;36257;46.052;12.540;2023-04-25T04:16:36;8.40;99.90
40932;DHT22;36257;46.052;12.540;2023-04-25T04:19:02;8.50;99.90
40932;DHT22;36257;46.052;12.540;2023-04-25T04:21:27;8.40;99.90
40932;DHT22;36257;46.052;12.540;2023-04-25T04:23:54;8.50;99.90
40932;DHT22;36257;46.052;12.540;2023-04-25T04:26:20;8.50;99.90
40932;DHT22;36257;46.052;12.540;2023-04-25T04:28:52;8.40;99.90
40932;DHT22;36257;46.052;12.540;2023-04-25T04:31:20;8.50;99.90
40932;DHT22;36257;46.052;12.540;2023-04-25T04:33:46;8.60;99.90
40932;DHT22;36257;46.052;12.540;2023-04-25T04:36:12;8.70;99.90
40932;DHT22;36257;46.052;12.540;2023-04-25T04:38:38;8.70;99.90
40932;DHT22;36257;46.052;12.540;2023-04-25T04:41:04;8.70;99.90
40932;DHT22;36257;46.052;12.540;2023-04-25T04:43:29;8.70;99.90
40932;DHT22;36257;46.052;12.540;2023-04-25T04:45:55;8.80;99.90
40932;DHT22;36257;46.052;12.540;2023-04-25T04:48:24;8.80;99.90
40932;DHT22;36257;46.052;12.540;2023-04-25T04:50:50;8.90;99.90
40932;DHT22;36257;46.052;12.540;2023-04-25T04:53:15;8.90;99.90
40932;DHT22;36257;46.052;12.540;2023-04-25T04:55:41;8.90;99.90
40932;DHT22;36257;46.052;12.540;2023-04-25T04:58:07;9.10;99.90
40932;DHT22;36257;46.052;12.540;2023-04-25T05:00:33;9.20;99.90
40932;DHT22;36257;46.052;12.540;2023-04-25T05:02:59;9.30;99.90
40932;DHT22;36257;46.052;12.540;2023-04-25T05:05:25;9.50;99.90
40932;DHT22;36257;46.052;12.540;2023-04-25T05:07:51;9.60;99.90
40932;DHT22;36257;46.052;12.540;2023-04-25T05:10:18;9.80;99.90
40932;DHT22;36257;46.052;12.540;2023-04-25T05:12:44;10.00;99.90
40932;DHT22;36257;46.052;12.540;2023-04-25T05:15:10;10.00;99.90
40932;DHT22;36257;46.052;12.540;2023-04-25T05:17:36;10.10;99.90
40932;DHT22;36257;46.052;12.540;2023-04-25T05:20:02;10.10;99.90
40932;DHT22;36257;46.052;12.540;2023-04-25T05:22:28;10.20;99.90
40932;DHT22;36257;46.052;12.540;2023-04-25T05:24:53;10.30;99.90
40932;DHT22;36257;46.052;12.540;2023-04-25T05:27:20;10.30;99.90
40932;DHT22;36257;46.052;12.540;2023-04-25T05:29:45;10.40;99.90
40932;DHT22;36257;46.052;12.540;2023-04-25T05:32:11;10.50;99.90
40932;DHT22;36257;46.052;12.540;2023-04-25T05:34:37;10.40;99.90
40932;DHT22;36257;46.052;12.540;2023-04-25T05:37:02;10.50;99.90
40932;DHT22;36257;46.052;12.540;2023-04-25T05:39:28;10.50;99.90
40932;DHT22;36257;46.052;12.540;2023-04-25T05:41:54;10.50;99.90
40932;DHT22;36257;46.052;12.540;2023-04-25T05:44:20;10.50;99.90
40932;DHT22;36257;46.052;12.540;2023-04-25T05:46:45;10.50;99.90
40932;DHT22;36257;46.052;12.540;2023-04-25T05:49:11;10.50;99.90
40932;DHT22;36257;46.052;12.540;2023-04-25T05:51:36;10.60;99.90
40932;DHT22;36257;46.052;12.540;2023-04-25T05:54:02;10.70;99.90
40932;DHT22;36257;46.052;12.540;2023-04-25T05:56:28;10.70;99.90
40932;DHT22;36257;46.052;12.540;2023-04-25T05:58:53;10.70;99.90
40932;DHT22;36257;46.052;12.540;2023-04-25T06:01:19;10.70;99.90
40932;DHT22;36257;46.052;12.540;2023-04-25T06:03:45;10.80;99.90
40932;DHT22;36257;46.052;12.540;2023-04-25T06:06:11;10.80;99.90
40932;DHT22;36257;46.052;12.540;2023-04-25T06:08:37;10.80;99.90
40932;DHT22;36257;46.052;12.540;2023-04-25T06:11:04;10.90;99.90
40932;DHT22;36257;46.052;12.540;2023-04-25T06:13:30;10.90;99.90
40932;DHT22;36257;46.052;12.540;2023-04-25T06:15:55;11.10;99.90
40932;DHT22;36257;46.052;12.540;2023-04-25T06:18:21;11.20;99.90
40932;DHT22;36257;46.052;12.540;2023-04-25T06:20:47;11.20;99.90
40932;DHT22;36257;46.052;12.540;2023-04-25T06:23:12;11.20;99.90
40932;DHT22;36257;46.052;12.540;2023-04-25T06:25:38;11.00;99.90
40932;DHT22;36257;46.052;12.540;2023-04-25T06:28:03;11.00;99.90
40932;DHT22;36257;46.052;12.540;2023-04-25T06:30:29;10.90;99.90
40932;DHT22;36257;46.052;12.540;2023-04-25T06:32:55;11.00;99.90
40932;DHT22;36257;46.052;12.540;2023-04-25T06:35:21;10.90;99.90
40932;DHT22;36257;46.052;12.540;2023-04-25T06:37:46;11.00;99.90
40932;DHT22;36257;46.052;12.540;2023-04-25T06:40:12;10.90;99.90
40932;DHT22;36257;46.052;12.540;2023-04-25T06:42:38;10.80;99.90
40932;DHT22;36257;46.052;12.540;2023-04-25T06:45:03;10.70;99.90
40932;DHT22;36257;46.052;12.540;2023-04-25T06:47:29;10.70;99.90
40932;DHT22;36257;46.052;12.540;2023-04-25T06:49:55;10.70;99.90
40932;DHT22;36257;46.052;12.540;2023-04-25T06:52:21;10.70;99.90
40932;DHT22;36257;46.052;12.540;2023-04-25T06:54:47;10.70;99.90
40932;DHT22;36257;46.052;12.540;2023-04-25T06:57:13;10.70;99.90
40932;DHT22;36257;46.052;12.540;2023-04-25T06:59:38;10.80;99.90
40932;DHT22;36257;46.052;12.540;2023-04-25T07:02:04;10.90;99.90
40932;DHT22;36257;46.052;12.540;2023-04-25T07:04:31;10.90;99.90
40932;DHT22;36257;46.052;12.540;2023-04-25T07:07:02;10.90;99.90
40932;DHT22;36257;46.052;12.540;2023-04-25T07:09:29;10.90;99.90
40932;DHT22;36257;46.052;12.540;2023-04-25T07:11:55;10.90;99.90
40932;DHT22;36257;46.052;12.540;2023-04-25T07:14:21;11.00;99.90
40932;DHT22;36257;46.052;12.540;2023-04-25T07:16:47;11.00;99.90
40932;DHT22;36257;46.052;12.540;2023-04-25T07:19:13;11.20;99.90
40932;DHT22;36257;46.052;12.540;2023-04-25T07:21:38;11.20;99.90
40932;DHT22;36257;46.052;12.540;2023-04-25T07:24:04;11.30;99.90
40932;DHT22;36257;46.052;12.540;2023-04-25T07:26:30;11.30;99.90
40932;DHT22;36257;46.052;12.540;2023-04-25T07:28:56;11.50;99.90
40932;DHT22;36257;46.052;12.540;2023-04-25T07:31:22;11.50;99.90
40932;DHT22;36257;46.052;12.540;2023-04-25T07:33:48;11.60;99.90
40932;DHT22;36257;46.052;12.540;2023-04-25T07:36:13;11.70;99.90
40932;DHT22;36257;46.052;12.540;2023-04-25T07:38:40;11.60;99.90
40932;DHT22;36257;46.052;12.540;2023-04-25T07:41:06;11.60;99.90
40932;DHT22;36257;46.052;12.540;2023-04-25T07:43:32;11.70;99.90
40932;DHT22;36257;46.052;12.540;2023-04-25T07:45:57;11.80;99.90
40932;DHT22;36257;46.052;12.540;2023-04-25T07:48:23;11.80;99.90
40932;DHT22;36257;46.052;12.540;2023-04-25T07:50:49;11.90;99.90
40932;DHT22;36257;46.052;12.540;2023-04-25T07:53:15;11.90;99.90
40932;DHT22;36257;46.052;12.540;2023-04-25T07:55:41;11.90;99.90
40932;DHT22;36257;46.052;12.540;2023-04-25T07:58:07;11.90;99.90
40932;DHT22;36257;46.052;12.540;2023-04-25T08:00:33;11.90;99.90
40932;DHT22;36257;46.052;12.540;2023-04-25T08:02:59;11.80;99.90
40932;DHT22;36257;46.052;12.540;2023-04-25T08:05:24;11.70;99.90
40932;DHT22;36257;46.052;12.540;2023-04-25T08:07:50;11.70;99.90
40932;DHT22;36257;46.052;12.540;2023-04-25T08:10:16;11.70;99.90
40932;DHT22;36257;46.052;12.540;2023-04-25T08:12:41;11.70;99.90
40932;DHT22;36257;46.052;12.540;2023-04-25T08:15:07;11.70;99.90
40932;DHT22;36257;46.052;12.540;2023-04-25T08:17:33;11.70;99.90
40932;DHT22;36257;46.052;12.540;2023-04-25T08:19:59;11.80;99.90
40932;DHT22;36257;46.052;12.540;2023-04-25T08:22:25;11.80;99.90
40932;DHT22;36257;46.052;12.540;2023-04-25T08:24:50;11.80;99.90
40932;DHT22;36257;46.052;12.540;2023-04-25T08:27:17;11.80;99.90
40932;DHT22;36257;46.052;12.540;2023-04-25T08:29:43;11.70;99.90
40932;DHT22;36257;46.052;12.540;2023-04-25T08:32:09;11.70;99.90
40932;DHT22;36257;46.052;12.540;2023-04-25T08:34:34;11.70;99.90
40932;DHT22;36257;46.052;12.540;2023-04-25T08:37:02;11.70;99.90
40932;DHT22;36257;46.052;12.540;2023-04-25T08:39:29;11.70;99.90
40932;DHT22;36257;46.052;12.540;2023-04-25T08:41:56;11.70;99.90
40932;DHT22;36257;46.052;12.540;2023-04-25T08:44:22;11.70;99.90
40932;DHT22;36257;46.052;12.540;2023-04-25T08:46:49;11.70;99.90
40932;DHT22;36257;46.052;12.540;2023-04-25T08:49:17;11.70;99.90
40932;DHT22;36257;46.052;12.540;2023-04-25T08:51:47;11.60;99.90
40932;DHT22;36257;46.052;12.540;2023-04-25T08:54:14;11.60;99.90
40932;DHT22;36257;46.052;12.540;2023-04-25T08:56:43;11.60;99.90
40932;DHT22;36257;46.052;12.540;2023-04-25T08:59:13;11.60;99.90
40932;DHT22;36257;46.052;12.540;2023-04-25T09:01:39;11.60;99.90
40932;DHT22;36257;46.052;12.540;2023-04-25T09:04:05;11.60;99.90
40932;DHT22;36257;46.052;12.540;2023-04-25T09:06:30;11.60;99.90
40932;DHT22;36257;46.052;12.540;2023-04-25T09:09:05;11.60;99.90
40932;DHT22;36257;46.052;12.540;2023-04-25T09:11:31;11.40;99.90
40932;DHT22;36257;46.052;12.540;2023-04-25T09:19:31;11.00;99.90
40932;DHT22;36257;46.052;12.540;2023-04-25T09:21:59;10.90;99.90
40932;DHT22;36257;46.052;12.540;2023-04-25T09:24:38;10.90;99.90
40932;DHT22;36257;46.052;12.540;2023-04-25T09:27:12;11.00;99.90
40932;DHT22;36257;46.052;12.540;2023-04-25T09:29:39;11.00;99.90
40932;DHT22;36257;46.052;12.540;2023-04-25T09:32:17;10.90;99.90
40932;DHT22;36257;46.052;12.540;2023-04-25T09:34:45;10.90;99.90
40932;DHT22;36257;46.052;12.540;2023-04-25T09:37:17;10.90;99.90
40932;DHT22;36257;46.052;12.540;2023-04-25T09:39:45;11.00;99.90
40932;DHT22;36257;46.052;12.540;2023-04-25T09:42:13;11.00;99.90
40932;DHT22;36257;46.052;12.540;2023-04-25T09:44:46;11.00;99.90
40932;DHT22;36257;46.052;12.540;2023-04-25T09:47:13;10.90;99.90
40932;DHT22;36257;46.052;12.540;2023-04-25T09:49:41;10.90;99.90
40932;DHT22;36257;46.052;12.540;2023-04-25T09:52:08;10.80;99.90
40932;DHT22;36257;46.052;12.540;2023-04-25T09:54:34;10.70;99.90
40932;DHT22;36257;46.052;12.540;2023-04-25T09:57:15;10.60;99.90
40932;DHT22;36257;46.052;12.540;2023-04-25T10:00:02;10.60;99.90
40932;DHT22;36257;46.052;12.540;2023-04-25T10:02:31;10.60;99.90
40932;DHT22;36257;46.052;12.540;2023-04-25T10:04:58;10.60;99.90
40932;DHT22;36257;46.052;12.540;2023-04-25T10:07:27;10.70;99.90
40932;DHT22;36257;46.052;12.540;2023-04-25T10:10:04;10.70;99.90
40932;DHT22;36257;46.052;12.540;2023-04-25T10:12:30;10.70;99.90
40932;DHT22;36257;46.052;12.540;2023-04-25T10:15:00;10.70;99.90
40932;DHT22;36257;46.052;12.540;2023-04-25T10:17:29;10.70;99.90
40932;DHT22;36257;46.052;12.540;2023-04-25T10:19:55;10.70;99.90
40932;DHT22;36257;46.052;12.540;2023-04-25T10:22:32;10.60;99.90
40932;DHT22;36257;46.052;12.540;2023-04-25T10:25:00;10.60;99.90
40932;DHT22;36257;46.052;12.540;2023-04-25T10:27:29;10.60;99.90
40932;DHT22;36257;46.052;12.540;2023-04-25T10:30:20;10.60;99.90
40932;DHT22;36257;46.052;12.540;2023-04-25T10:32:47;10.50;99.90
40932;DHT22;36257;46.052;12.540;2023-04-25T10:35:18;10.50;99.90
40932;DHT22;36257;46.052;12.540;2023-04-25T10:38:04;10.40;99.90
40932;DHT22;36257;46.052;12.540;2023-04-25T10:40:31;10.60;99.90
40932;DHT22;36257;46.052;12.540;2023-04-25T10:43:32;10.60;99.90
40932;DHT22;36257;46.052;12.540;2023-04-25T10:46:02;10.70;99.90
40932;DHT22;36257;46.052;12.540;2023-04-25T10:48:31;10.80;99.90
40932;DHT22;36257;46.052;12.540;2023-04-25T10:51:09;10.80;99.90
40932;DHT22;36257;46.052;12.540;2023-04-25T10:53:35;10.90;99.90
40932;DHT22;36257;46.052;12.540;2023-04-25T10:56:09;11.00;99.90
40932;DHT22;36257;46.052;12.540;2023-04-25T10:58:34;11.10;99.90
40932;DHT22;36257;46.052;12.540;2023-04-25T11:01:01;11.20;99.90
40932;DHT22;36257;46.052;12.540;2023-04-25T11:03:27;11.40;99.90
40932;DHT22;36257;46.052;12.540;2023-04-25T11:05:52;11.50;99.90
40932;DHT22;36257;46.052;12.540;2023-04-25T11:08:30;11.60;99.90
40932;DHT22;36257;46.052;12.540;2023-04-25T11:10:59;11.80;99.90
40932;DHT22;36257;46.052;12.540;2023-04-25T11:13:29;11.90;99.90
40932;DHT22;36257;46.052;12.540;2023-04-25T11:15:55;12.00;99.90
40932;DHT22;36257;46.052;12.540;2023-04-25T11:18:21;12.00;99.90
40932;DHT22;36257;46.052;12.540;2023-04-25T11:20:48;12.00;99.90
40932;DHT22;36257;46.052;12.540;2023-04-25T11:23:13;12.00;99.90
40932;DHT22;36257;46.052;12.540;2023-04-25T11:25:40;12.10;99.90
40932;DHT22;36257;46.052;12.540;2023-04-25T11:28:06;12.10;99.90
40932;DHT22;36257;46.052;12.540;2023-04-25T11:30:32;12.30;99.90
40932;DHT22;36257;46.052;12.540;2023-04-25T11:32:57;12.40;99.90
40932;DHT22;36257;46.052;12.540;2023-04-25T11:35:23;12.60;99.90
40932;DHT22;36257;46.052;12.540;2023-04-25T11:37:51;12.70;99.90
40932;DHT22;36257;46.052;12.540;2023-04-25T11:40:17;12.90;98.30
40932;DHT22;36257;46.052;12.540;2023-04-25T11:42:46;13.00;98.10
40932;DHT22;36257;46.052;12.540;2023-04-25T11:45:13;13.40;98.70
40932;DHT22;36257;46.052;12.540;2023-04-25T11:47:39;14.00;96.10
40932;DHT22;36257;46.052;12.540;2023-04-25T11:50:07;14.50;91.90
40932;DHT22;36257;46.052;12.540;2023-04-25T11:55:07;15.40;89.80
40932;DHT22;36257;46.052;12.540;2023-04-25T11:57:33;15.90;87.50
40932;DHT22;36257;46.052;12.540;2023-04-25T12:02:43;17.00;82.30
40932;DHT22;36257;46.052;12.540;2023-04-25T12:05:10;17.30;81.80
40932;DHT22;36257;46.052;12.540;2023-04-25T12:07:36;17.70;83.40
40932;DHT22;36257;46.052;12.540;2023-04-25T12:10:11;17.90;78.70
40932;DHT22;36257;46.052;12.540;2023-04-25T12:12:38;18.30;78.00
40932;DHT22;36257;46.052;12.540;2023-04-25T12:17:37;18.30;73.70
40932;DHT22;36257;46.052;12.540;2023-04-25T12:20:10;18.40;75.40
40932;DHT22;36257;46.052;12.540;2023-04-25T12:22:37;18.20;74.30
40932;DHT22;36257;46.052;12.540;2023-04-25T12:25:04;17.80;72.50
40932;DHT22;36257;46.052;12.540;2023-04-25T12:27:31;17.20;72.40
40932;DHT22;36257;46.052;12.540;2023-04-25T12:29:57;16.70;74.20
40932;DHT22;36257;46.052;12.540;2023-04-25T12:32:24;16.50;76.00
40932;DHT22;36257;46.052;12.540;2023-04-25T12:34:50;16.40;75.20
40932;DHT22;36257;46.052;12.540;2023-04-25T12:37:16;16.40;76.60
40932;DHT22;36257;46.052;12.540;2023-04-25T12:39:42;16.40;76.80
40932;DHT22;36257;46.052;12.540;2023-04-25T12:42:08;16.40;75.60
40932;DHT22;36257;46.052;12.540;2023-04-25T12:44:37;16.20;73.90
40932;DHT22;36257;46.052;12.540;2023-04-25T12:47:03;16.10;75.00
40932;DHT22;36257;46.052;12.540;2023-04-25T12:49:29;16.00;76.20
40932;DHT22;36257;46.052;12.540;2023-04-25T12:51:54;16.00;75.60
40932;DHT22;36257;46.052;12.540;2023-04-25T12:54:20;15.90;77.30
40932;DHT22;36257;46.052;12.540;2023-04-25T12:56:46;15.90;79.20
40932;DHT22;36257;46.052;12.540;2023-04-25T12:59:11;15.90;78.90
40932;DHT22;36257;46.052;12.540;2023-04-25T13:01:37;15.80;81.40
40932;DHT22;36257;46.052;12.540;2023-04-25T13:04:03;15.90;81.00
40932;DHT22;36257;46.052;12.540;2023-04-25T13:06:29;16.40;80.00
40932;DHT22;36257;46.052;12.540;2023-04-25T13:08:57;16.70;81.40
40932;DHT22;36257;46.052;12.540;2023-04-25T13:11:23;17.20;77.70
40932;DHT22;36257;46.052;12.540;2023-04-25T13:13:48;17.50;78.30
40932;DHT22;36257;46.052;12.540;2023-04-25T13:16:14;17.50;74.70
40932;DHT22;36257;46.052;12.540;2023-04-25T13:18:40;17.40;73.50
40932;DHT22;36257;46.052;12.540;2023-04-25T13:21:06;17.00;73.00
40932;DHT22;36257;46.052;12.540;2023-04-25T13:23:32;16.90;75.60
40932;DHT22;36257;46.052;12.540;2023-04-25T13:25:57;16.60;75.60
40932;DHT22;36257;46.052;12.540;2023-04-25T13:28:24;16.50;72.90
40932;DHT22;36257;46.052;12.540;2023-04-25T13:30:50;16.50;74.10
40932;DHT22;36257;46.052;12.540;2023-04-25T13:33:17;16.90;75.70
40932;DHT22;36257;46.052;12.540;2023-04-25T13:35:43;17.10;72.60
40932;DHT22;36257;46.052;12.540;2023-04-25T13:38:12;17.30;76.30
40932;DHT22;36257;46.052;12.540;2023-04-25T13:40:38;17.70;77.70
40932;DHT22;36257;46.052;12.540;2023-04-25T13:43:04;18.00;76.10
40932;DHT22;36257;46.052;12.540;2023-04-25T13:45:32;18.00;75.10
40932;DHT22;36257;46.052;12.540;2023-04-25T13:47:57;17.90;74.40
40932;DHT22;36257;46.052;12.540;2023-04-25T13:50:23;17.90;74.70
40932;DHT22;36257;46.052;12.540;2023-04-25T13:52:48;17.90;75.80
40932;DHT22;36257;46.052;12.540;2023-04-25T13:55:14;17.90;74.70
40932;DHT22;36257;46.052;12.540;2023-04-25T13:57:40;17.70;73.60
40932;DHT22;36257;46.052;12.540;2023-04-25T14:00:06;17.80;74.80
40932;DHT22;36257;46.052;12.540;2023-04-25T14:02:34;17.90;74.20
40932;DHT22;36257;46.052;12.540;2023-04-25T14:05:00;17.80;72.10
40932;DHT22;36257;46.052;12.540;2023-04-25T14:07:26;17.70;75.00
40932;DHT22;36257;46.052;12.540;2023-04-25T14:09:52;17.70;75.00
40932;DHT22;36257;46.052;12.540;2023-04-25T14:12:17;17.70;72.50
40932;DHT22;36257;46.052;12.540;2023-04-25T14:14:43;17.60;73.00
40932;DHT22;36257;46.052;12.540;2023-04-25T14:17:09;17.50;74.70
40932;DHT22;36257;46.052;12.540;2023-04-25T14:19:35;17.40;74.10
40932;DHT22;36257;46.052;12.540;2023-04-25T14:22:00;17.30;74.60
40932;DHT22;36257;46.052;12.540;2023-04-25T14:24:26;17.30;76.60
40932;DHT22;36257;46.052;12.540;2023-04-25T14:26:52;17.30;75.60
40932;DHT22;36257;46.052;12.540;2023-04-25T14:29:17;16.90;74.40
40932;DHT22;36257;46.052;12.540;2023-04-25T14:31:43;16.90;76.10
40932;DHT22;36257;46.052;12.540;2023-04-25T14:34:10;16.70;76.70
40932;DHT22;36257;46.052;12.540;2023-04-25T14:36:36;16.50;75.70
40932;DHT22;36257;46.052;12.540;2023-04-25T14:39:02;16.30;77.30
40932;DHT22;36257;46.052;12.540;2023-04-25T14:41:28;16.30;76.50
40932;DHT22;36257;46.052;12.540;2023-04-25T14:43:54;16.20;76.10
40932;DHT22;36257;46.052;12.540;2023-04-25T14:46:21;16.20;77.30
40932;DHT22;36257;46.052;12.540;2023-04-25T14:48:47;16.10;76.00
40932;DHT22;36257;46.052;12.540;2023-04-25T14:51:13;15.80;78.70
40932;DHT22;36257;46.052;12.540;2023-04-25T14:53:40;15.70;79.80
40932;DHT22;36257;46.052;12.540;2023-04-25T14:56:06;15.60;80.40
40932;DHT22;36257;46.052;12.540;2023-04-25T14:58:32;15.70;80.80
40932;DHT22;36257;46.052;12.540;2023-04-25T15:00:59;15.80;80.80
40932;DHT22;36257;46.052;12.540;2023-04-25T15:03:24;15.80;79.40
40932;DHT22;36257;46.052;12.540;2023-04-25T15:05:50;15.70;79.80
40932;DHT22;36257;46.052;12.540;2023-04-25T15:08:16;15.50;80.30
40932;DHT22;36257;46.052;12.540;2023-04-25T15:10:41;15.40;81.50
40932;DHT22;36257;46.052;12.540;2023-04-25T15:13:07;15.50;83.40
40932;DHT22;36257;46.052;12.540;2023-04-25T15:15:33;15.50;81.50
40932;DHT22;36257;46.052;12.540;2023-04-25T15:17:58;15.30;79.30
40932;DHT22;36257;46.052;12.540;2023-04-25T15:20:25;15.30;80.10
40932;DHT22;36257;46.052;12.540;2023-04-25T15:22:52;15.10;80.60
40932;DHT22;36257;46.052;12.540;2023-04-25T15:25:17;15.00;81.80
40932;DHT22;36257;46.052;12.540;2023-04-25T15:27:44;14.90;82.40
40932;DHT22;36257;46.052;12.540;2023-04-25T15:30:12;14.90;82.30